createdAt,value
2022-08-22T00:01:11.357Z,13.34
2022-08-22T00:02:53.142Z,12.27
2022-08-22T00:04:34.586Z,13.40
2022-08-22T00:08:10.750Z,13.50
2022-08-22T00:11:41.856Z,13.65
2022-08-22T00:14:59.094Z,13.74
2022-08-22T00:18:27.103Z,13.74
2022-08-22T00:21:58.266Z,13.67
2022-08-22T00:25:04.747Z,13.83
2022-08-22T00:28:17.569Z,13.97
2022-08-22T00:31:28.645Z,14.13
2022-08-22T00:34:46.946Z,14.27
2022-08-22T00:38:27.464Z,14.45
2022-08-22T00:41:39.876Z,14.68
2022-08-22T00:44:52.365Z,14.71
2022-08-22T00:48:07.698Z,14.88
2022-08-22T00:51:20.399Z,14.96
2022-08-22T00:54:44.875Z,15.15
2022-08-22T00:58:02.666Z,15.28
2022-08-22T01:01:10.297Z,15.47
2022-08-22T01:04:42.279Z,15.74
2022-08-22T01:08:17.102Z,15.96
2022-08-22T01:12:02.635Z,16.16
2022-08-22T01:15:10.683Z,16.35
2022-08-22T01:18:23.522Z,16.51
2022-08-22T01:22:04.101Z,16.74
2022-08-22T01:25:55.088Z,17.15
2022-08-22T01:29:28.416Z,17.44
2022-08-22T01:32:32.290Z,17.62
2022-08-22T01:36:03.856Z,18.01
2022-08-22T01:39:17.500Z,18.28
2022-08-22T01:42:38.676Z,18.85
2022-08-22T01:46:00.761Z,19.91
2022-08-22T01:49:16.655Z,20.42
2022-08-22T01:52:43.381Z,20.68
2022-08-22T01:56:04.982Z,20.91
2022-08-22T01:59:17.598Z,21.16
2022-08-22T02:02:53.170Z,21.70
2022-08-22T02:06:08.932Z,22.05
2022-08-22T02:09:32.816Z,22.39
2022-08-22T02:12:46.223Z,22.90
2022-08-22T02:16:16.441Z,22.89
2022-08-22T02:19:47.642Z,23.01
2022-08-22T02:23:01.856Z,23.49
2022-08-22T02:26:11.934Z,23.75
2022-08-22T02:29:21.252Z,24.14
2022-08-22T02:32:29.298Z,24.32
2022-08-22T02:35:47.589Z,24.96
2022-08-22T02:39:17.103Z,25.58
2022-08-22T02:42:44.946Z,26.19
2022-08-22T02:45:50.674Z,26.30
2022-08-22T02:49:16.262Z,26.45
2022-08-22T02:52:30.162Z,25.57
2022-08-22T02:55:55.555Z,24.53
2022-08-22T02:59:22.063Z,24.96
2022-08-22T03:02:34.662Z,23.18
2022-08-22T03:05:38.259Z,22.44
2022-08-22T03:09:06.553Z,22.94
2022-08-22T03:12:32.691Z,23.21
2022-08-22T03:15:53.618Z,22.55
2022-08-22T03:19:18.743Z,21.78
2022-08-22T03:22:47.285Z,21.12
2022-08-22T03:26:20.881Z,22.84
2022-08-22T03:29:45.036Z,22.87
2022-08-22T03:32:53.120Z,21.96
2022-08-22T03:36:17.363Z,23.65
2022-08-22T03:39:38.426Z,23.08
2022-08-22T03:43:22.083Z,22.52
2022-08-22T03:46:57.579Z,22.27
2022-08-22T03:50:49.519Z,21.69
2022-08-22T03:54:25.003Z,20.87
2022-08-22T03:58:00.125Z,20.79
2022-08-22T04:01:07.058Z,21.34
2022-08-22T04:04:46.982Z,21.90
2022-08-22T04:08:34.102Z,21.35
2022-08-22T04:12:23.243Z,21.92
2022-08-22T04:16:03.779Z,24.07
2022-08-22T04:19:22.661Z,23.51
2022-08-22T04:23:17.001Z,23.08
2022-08-22T04:26:51.705Z,24.51
2022-08-22T04:30:12.591Z,25.16
2022-08-22T04:33:26.444Z,23.95
2022-08-22T04:36:43.810Z,22.77
2022-08-22T04:40:15.887Z,21.84
2022-08-22T04:43:33.869Z,21.74
2022-08-22T04:46:53.323Z,21.57
2022-08-22T04:50:14.649Z,21.57
2022-08-22T04:53:51.117Z,22.22
2022-08-22T04:57:08.028Z,23.23
2022-08-22T05:00:13.013Z,23.35
2022-08-22T05:03:19.199Z,22.77
2022-08-22T05:06:27.944Z,22.14
2022-08-22T05:09:34.818Z,21.60
2022-08-22T05:12:43.873Z,22.03
2022-08-22T05:15:52.095Z,22.66
2022-08-22T05:19:15.812Z,22.93
2022-08-22T05:22:25.353Z,22.44
2022-08-22T05:25:33.202Z,22.27
2022-08-22T05:28:53.228Z,22.24
2022-08-22T05:32:02.708Z,22.41
2022-08-22T05:35:09.551Z,23.49
2022-08-22T05:38:18.279Z,24.75
2022-08-22T05:41:25.889Z,25.75
2022-08-22T05:44:38.207Z,26.10
2022-08-22T05:47:43.559Z,25.09
2022-08-22T05:50:51.955Z,23.83
2022-08-22T05:54:11.547Z,23.36
2022-08-22T05:57:24.335Z,23.44
2022-08-22T06:00:33.989Z,23.29
2022-08-22T06:03:57.182Z,23.18
2022-08-22T06:07:22.755Z,23.76
2022-08-22T06:10:30.431Z,23.05
2022-08-22T06:13:41.168Z,22.49
2022-08-22T06:16:51.875Z,24.18
2022-08-22T06:19:55.911Z,27.65
2022-08-22T06:23:02.892Z,27.29
2022-08-22T06:26:20.668Z,24.86
2022-08-22T06:29:37.009Z,25.43
2022-08-22T06:32:59.116Z,29.10
2022-08-22T06:36:31.305Z,28.57
2022-08-22T06:39:45.152Z,27.48
2022-08-22T06:42:51.833Z,26.13
2022-08-22T06:45:55.988Z,25.11
2022-08-22T06:49:01.755Z,24.61
2022-08-22T06:52:10.438Z,25.25
2022-08-22T06:55:14.816Z,25.05
2022-08-22T06:58:23.810Z,24.19
2022-08-22T07:02:00.981Z,23.63
2022-08-22T07:05:05.053Z,23.36
2022-08-22T07:08:16.498Z,23.44
2022-08-22T07:11:30.595Z,23.85
2022-08-22T07:14:42.478Z,25.36
2022-08-22T07:17:58.270Z,25.79
2022-08-22T07:21:05.375Z,24.55
2022-08-22T07:24:11.245Z,23.86
2022-08-22T07:27:27.084Z,23.51
2022-08-22T07:30:56.649Z,23.33
2022-08-22T07:34:26.247Z,23.09
2022-08-22T07:37:44.338Z,23.00
2022-08-22T07:41:00.998Z,22.85
2022-08-22T07:44:16.454Z,22.85
2022-08-22T07:47:26.180Z,23.83
2022-08-22T07:50:40.207Z,25.12
2022-08-22T07:54:00.801Z,25.72
2022-08-22T07:57:13.426Z,25.58
2022-08-22T08:00:20.232Z,24.77
2022-08-22T08:03:27.063Z,25.14
2022-08-22T08:06:32.942Z,25.14
2022-08-22T08:09:42.011Z,25.41
2022-08-22T08:12:52.786Z,27.62
2022-08-22T08:16:10.444Z,25.78
2022-08-22T08:19:18.250Z,25.37
2022-08-22T08:22:26.904Z,27.84
2022-08-22T08:25:34.527Z,29.86
2022-08-22T08:28:45.620Z,31.90
2022-08-22T08:31:49.426Z,31.71
2022-08-22T08:34:53.201Z,31.39
2022-08-22T08:38:20.435Z,32.95
2022-08-22T08:41:46.552Z,33.46
2022-08-22T08:45:07.453Z,35.30
2022-08-22T08:48:35.427Z,36.70
2022-08-22T08:52:26.915Z,38.86
2022-08-22T08:55:29.861Z,34.73
2022-08-22T08:58:46.857Z,36.00
2022-08-22T09:02:23.915Z,34.45
2022-08-22T09:05:49.561Z,37.13
2022-08-22T09:08:59.038Z,37.40
2022-08-22T09:12:24.810Z,37.91
2022-08-22T09:15:40.258Z,39.02
2022-08-22T09:19:14.921Z,39.36
2022-08-22T09:22:49.915Z,39.04
2022-08-22T09:26:13.979Z,38.76
2022-08-22T09:29:55.147Z,38.47
2022-08-22T09:33:11.429Z,38.77
2022-08-22T09:36:36.727Z,38.44
2022-08-22T09:39:55.412Z,37.90
2022-08-22T09:43:07.748Z,38.43
2022-08-22T09:46:32.239Z,35.87
2022-08-22T09:49:59.096Z,34.21
2022-08-22T09:53:24.272Z,36.43
2022-08-22T09:56:44.433Z,37.40
2022-08-22T09:59:58.183Z,34.33
2022-08-22T10:03:16.834Z,32.75
2022-08-22T10:06:29.483Z,30.59
2022-08-22T10:10:02.275Z,32.60
2022-08-22T10:13:10.397Z,33.86
2022-08-22T10:16:32.180Z,34.01
2022-08-22T10:20:13.397Z,33.06
2022-08-22T10:23:39.118Z,32.20
2022-08-22T10:26:48.583Z,31.81
2022-08-22T10:30:15.614Z,32.67
2022-08-22T10:33:29.387Z,31.85
2022-08-22T10:36:43.301Z,31.25
2022-08-22T10:40:00.435Z,30.62
2022-08-22T10:43:14.188Z,28.88
2022-08-22T10:46:24.353Z,26.76
2022-08-22T10:49:51.375Z,25.50
2022-08-22T10:53:24.702Z,24.25
2022-08-22T10:56:41.058Z,23.60
2022-08-22T10:59:59.817Z,23.20
2022-08-22T11:03:41.117Z,22.48
2022-08-22T11:07:22.898Z,22.37
2022-08-22T11:10:49.511Z,21.81
2022-08-22T11:14:01.898Z,21.27
2022-08-22T11:17:28.060Z,20.99
2022-08-22T11:20:50.170Z,20.70
2022-08-22T11:24:34.778Z,20.70
2022-08-22T11:27:57.388Z,20.46
2022-08-22T11:31:13.179Z,20.31
2022-08-22T11:34:44.928Z,20.31
2022-08-22T11:38:16.839Z,19.88
2022-08-22T11:41:54.304Z,19.84
2022-08-22T11:45:01.002Z,19.72
2022-08-22T11:48:44.367Z,19.62
2022-08-22T11:52:35.657Z,19.50
2022-08-22T11:56:20.612Z,19.35
2022-08-22T12:00:00.387Z,19.24
2022-08-22T12:03:27.932Z,18.75
2022-08-22T12:06:42.215Z,18.65
2022-08-22T12:10:03.541Z,18.61
2022-08-22T12:13:47.031Z,18.65
2022-08-22T12:17:55.669Z,18.54
2022-08-22T12:20:54.390Z,18.29
2022-08-22T12:24:34.070Z,18.34
2022-08-22T12:28:03.671Z,18.33
2022-08-22T12:31:33.547Z,18.32
2022-08-22T12:35:14.063Z,18.34
2022-08-22T12:38:47.969Z,18.33
2022-08-22T12:42:09.895Z,18.33
2022-08-22T12:45:21.326Z,18.22
2022-08-22T12:48:43.661Z,17.93
2022-08-22T12:52:04.624Z,17.95
2022-08-22T12:55:13.988Z,17.79
2022-08-22T12:58:36.049Z,17.88
2022-08-22T13:01:47.490Z,17.88
2022-08-22T13:04:56.323Z,17.90
2022-08-22T13:08:08.394Z,17.90
2022-08-22T13:11:22.658Z,17.91
2022-08-22T13:14:29.936Z,17.90
2022-08-22T13:17:34.027Z,17.75
2022-08-22T13:20:43.513Z,17.75
2022-08-22T13:23:53.693Z,17.79
2022-08-22T13:27:06.056Z,17.80
2022-08-22T13:30:17.369Z,17.74
2022-08-22T13:33:29.021Z,17.75
2022-08-22T13:36:43.423Z,17.76
2022-08-22T13:40:01.931Z,17.68
2022-08-22T13:43:07.175Z,17.63
2022-08-22T13:46:11.652Z,17.65
2022-08-22T13:49:20.495Z,17.66
2022-08-22T13:52:30.362Z,17.63
2022-08-22T13:55:50.571Z,17.58
2022-08-22T13:59:06.563Z,17.62
2022-08-22T14:02:32.401Z,17.66
2022-08-22T14:05:43.865Z,17.51
2022-08-22T14:08:48.225Z,17.49
2022-08-22T14:12:00.719Z,17.45
2022-08-22T14:15:08.780Z,17.34
2022-08-22T14:18:16.865Z,17.33
2022-08-22T14:21:47.883Z,17.27
2022-08-22T14:24:59.008Z,17.17
2022-08-22T14:28:21.758Z,17.12
2022-08-22T14:31:31.874Z,17.11
2022-08-22T14:34:45.467Z,17.05
2022-08-22T14:37:59.015Z,16.98
2022-08-22T14:41:14.867Z,16.91
2022-08-22T14:44:46.640Z,16.85
2022-08-22T14:48:29.610Z,16.77
2022-08-22T14:51:26.190Z,16.69
2022-08-22T14:54:31.426Z,16.62
2022-08-22T14:57:45.240Z,16.61
2022-08-22T15:00:52.890Z,16.57
2022-08-22T15:04:06.997Z,16.52
2022-08-22T15:07:14.810Z,16.46
2022-08-22T15:10:32.930Z,16.49
2022-08-22T15:13:39.681Z,16.43
2022-08-22T15:16:51.282Z,16.42
2022-08-22T15:19:54.818Z,16.33
2022-08-22T15:23:02.777Z,16.34
2022-08-22T15:26:23.914Z,16.34
2022-08-22T15:29:32.026Z,16.26
2022-08-22T15:32:41.967Z,16.32
2022-08-22T15:35:47.114Z,16.29
2022-08-22T15:39:17.722Z,16.32
2022-08-22T15:42:33.758Z,16.24
2022-08-22T15:45:39.858Z,16.23
2022-08-22T15:48:53.778Z,16.15
2022-08-22T15:52:03.175Z,16.12
2022-08-22T15:55:14.844Z,15.90
2022-08-22T15:58:24.356Z,15.78
2022-08-22T16:01:28.632Z,15.80
2022-08-22T16:04:41.345Z,15.83
2022-08-22T16:08:00.021Z,15.82
2022-08-22T16:11:03.944Z,15.78
2022-08-22T16:14:50.491Z,15.80
2022-08-22T16:17:53.685Z,15.68
2022-08-22T16:20:58.524Z,15.65
2022-08-22T16:24:02.749Z,15.54
2022-08-22T16:27:21.060Z,15.45
2022-08-22T16:30:36.598Z,15.29
2022-08-22T16:33:42.650Z,15.32
2022-08-22T16:37:04.536Z,15.43
2022-08-22T16:40:21.736Z,15.41
2022-08-22T16:43:28.823Z,15.42
2022-08-22T16:46:43.395Z,15.46
2022-08-22T16:49:53.407Z,15.44
2022-08-22T16:53:05.765Z,15.44
2022-08-22T16:56:42.861Z,15.45
2022-08-22T17:00:05.471Z,15.33
2022-08-22T17:03:15.440Z,15.25
2022-08-22T17:06:48.119Z,15.17
2022-08-22T17:10:12.386Z,15.14
2022-08-22T17:13:26.580Z,15.06
2022-08-22T17:16:31.378Z,14.99
2022-08-22T17:19:38.543Z,14.98
2022-08-22T17:22:58.833Z,15.03
2022-08-22T17:26:07.001Z,14.98
2022-08-22T17:29:45.375Z,14.97
2022-08-22T17:33:15.876Z,14.89
2022-08-22T17:36:27.234Z,14.88
2022-08-22T17:40:00.536Z,14.84
2022-08-22T17:43:32.776Z,14.75
2022-08-22T17:46:53.308Z,14.67
2022-08-22T17:50:20.929Z,14.66
2022-08-22T17:53:38.282Z,14.66
2022-08-22T17:56:47.230Z,14.58
2022-08-22T18:00:12.991Z,14.57
2022-08-22T18:03:20.368Z,14.47
2022-08-22T18:06:30.539Z,14.35
2022-08-22T18:09:50.181Z,14.36
2022-08-22T18:13:12.019Z,14.34
2022-08-22T18:16:48.946Z,14.31
2022-08-22T18:20:17.900Z,14.26
2022-08-22T18:23:40.624Z,14.22
2022-08-22T18:26:50.903Z,14.13
2022-08-22T18:30:18.319Z,14.16
2022-08-22T18:33:38.508Z,14.13
2022-08-22T18:36:53.232Z,14.09
2022-08-22T18:40:33.147Z,14.12
2022-08-22T18:43:40.301Z,13.91
2022-08-22T18:46:51.610Z,13.78
2022-08-22T18:49:56.728Z,13.68
2022-08-22T18:53:00.111Z,13.59
2022-08-22T18:56:21.016Z,13.55
2022-08-22T18:59:43.673Z,13.50
2022-08-22T19:03:10.332Z,13.39
2022-08-22T19:06:23.329Z,13.22
2022-08-22T19:09:40.522Z,13.11
2022-08-22T19:13:13.413Z,13.09
2022-08-22T19:16:43.989Z,13.08
2022-08-22T19:20:28.667Z,13.08
2022-08-22T19:23:38.079Z,13.10
2022-08-22T19:26:49.157Z,13.18
2022-08-22T19:29:57.106Z,13.22
2022-08-22T19:33:07.552Z,13.18
2022-08-22T19:36:29.850Z,13.13
2022-08-22T19:39:42.847Z,13.09
2022-08-22T19:42:50.375Z,13.06
2022-08-22T19:45:54.234Z,13.04
2022-08-22T19:48:58.951Z,12.98
2022-08-22T19:52:14.762Z,13.07
2022-08-22T19:55:39.053Z,12.98
2022-08-22T19:59:12.796Z,12.94
2022-08-22T20:02:24.588Z,13.00
2022-08-22T20:05:51.766Z,12.92
2022-08-22T20:09:16.980Z,12.90
2022-08-22T20:12:42.234Z,12.88
2022-08-22T20:16:11.487Z,12.87
2022-08-22T20:19:20.694Z,12.80
2022-08-22T20:22:46.821Z,12.74
2022-08-22T20:25:53.494Z,12.62
2022-08-22T20:28:57.624Z,12.66
2022-08-22T20:32:03.120Z,12.62
2022-08-22T20:35:07.305Z,12.60
2022-08-22T20:38:15.620Z,12.62
2022-08-22T20:41:24.718Z,12.57
2022-08-22T20:44:37.258Z,12.48
2022-08-22T20:47:49.512Z,12.45
2022-08-22T20:50:53.261Z,12.33
2022-08-22T20:54:00.072Z,12.24
2022-08-22T20:57:18.707Z,12.22
2022-08-22T21:00:25.895Z,12.18
2022-08-22T21:03:45.275Z,12.18
2022-08-22T21:07:00.804Z,12.18
2022-08-22T21:10:37.517Z,12.18
2022-08-22T21:13:40.596Z,12.12
2022-08-22T21:16:43.549Z,12.04
2022-08-22T21:19:46.811Z,11.91
2022-08-22T21:22:50.539Z,11.78
2022-08-22T21:26:01.176Z,11.83
2022-08-22T21:29:20.513Z,11.81
2022-08-22T21:32:41.207Z,11.79
2022-08-22T21:35:54.556Z,11.70
2022-08-22T21:39:06.994Z,11.66
2022-08-22T21:42:24.596Z,11.72
2022-08-22T21:45:42.084Z,11.77
2022-08-22T21:49:03.040Z,11.78
2022-08-22T21:52:06.355Z,11.77
2022-08-22T21:55:27.904Z,11.69
2022-08-22T21:58:36.709Z,11.63
2022-08-22T22:01:42.639Z,11.65
2022-08-22T22:04:46.876Z,11.66
2022-08-22T22:07:50.603Z,11.66
2022-08-22T22:10:58.182Z,11.77
2022-08-22T22:14:01.257Z,11.87
2022-08-22T22:17:05.101Z,12.01
2022-08-22T22:20:09.094Z,12.12
2022-08-22T22:23:13.742Z,12.17
2022-08-22T22:26:17.332Z,12.24
2022-08-22T22:29:21.600Z,12.31
2022-08-22T22:32:25.370Z,12.40
2022-08-22T22:35:29.835Z,12.45
2022-08-22T22:38:33.704Z,12.47
2022-08-22T22:41:39.008Z,12.48
2022-08-22T22:44:43.950Z,12.42
2022-08-22T22:47:51.768Z,12.41
2022-08-22T22:50:55.811Z,12.53
2022-08-22T22:53:59.468Z,12.60
2022-08-22T22:57:03.384Z,12.70
2022-08-22T23:00:09.357Z,12.78
2022-08-22T23:03:13.202Z,12.87
2022-08-22T23:06:20.652Z,12.95
2022-08-22T23:09:38.768Z,12.97
2022-08-22T23:12:49.227Z,13.05
2022-08-22T23:15:52.665Z,13.21
2022-08-22T23:18:57.585Z,13.27
2022-08-22T23:22:03.038Z,13.38
2022-08-22T23:25:07.324Z,13.40
2022-08-22T23:28:10.985Z,13.43
2022-08-22T23:31:33.357Z,13.51
2022-08-22T23:34:40.848Z,13.47
2022-08-22T23:37:44.716Z,13.55
2022-08-22T23:40:48.440Z,13.59
2022-08-22T23:43:54.719Z,13.64
2022-08-22T23:46:58.782Z,13.56
2022-08-22T23:50:04.370Z,13.57
2022-08-22T23:53:10.150Z,13.62
2022-08-22T23:56:19.679Z,13.62
2022-08-22T23:59:30.714Z,13.61
